Time;durP1;ratioP1;P1;durP2;ratioP2;P2;SDS_P1;SDS_P2;PMS_P1;PMS_P2;Temp;Humidity;BMP_temperature;BMP_pressure;BME280_temperature;BME280_humidity;BME280_pressure;Samples;Min_cycle;Max_cycle;Signal;HPM_P1;HPM_P2
2023/08/27 00:00:54;;;;;;;2.10;2.00;;;16.70;99.90;;;;;;5066257;28;20530;-43
2023/08/27 00:03:19;;;;;;;2.20;2.00;;;16.70;99.90;;;;;;5055622;28;20029;-42
2023/08/27 00:05:48;;;;;;;2.20;2.00;;;16.70;99.90;;;;;;5062593;28;20051;-43
2023/08/27 00:08:14;;;;;;;3.00;2.20;;;16.80;99.90;;;;;;5057665;28;20021;-43
2023/08/27 00:10:39;;;;;;;3.55;2.50;;;16.80;99.90;;;;;;5061234;28;20518;-43
2023/08/27 00:13:05;;;;;;;2.30;2.10;;;16.80;99.90;;;;;;5058901;28;20051;-43
2023/08/27 00:15:31;;;;;;;2.85;1.80;;;16.80;99.90;;;;;;5058008;28;20104;-43
2023/08/27 00:17:56;;;;;;;2.00;1.80;;;16.80;99.90;;;;;;5063481;28;20028;-43
2023/08/27 00:20:25;;;;;;;2.25;1.65;;;16.90;99.90;;;;;;5054307;28;20127;-43
2023/08/27 00:22:54;;;;;;;2.10;1.85;;;16.90;99.90;;;;;;5064380;28;20014;-43
2023/08/27 00:25:19;;;;;;;2.10;1.90;;;16.90;99.90;;;;;;5052967;28;20557;-43
2023/08/27 00:27:45;;;;;;;1.88;1.77;;;16.90;99.90;;;;;;5047573;28;20055;-43
2023/08/27 00:30:11;;;;;;;2.00;1.80;;;16.80;99.90;;;;;;5058470;28;20355;-43
2023/08/27 00:32:36;;;;;;;2.28;1.80;;;16.80;99.90;;;;;;5064855;28;20037;-44
2023/08/27 00:35:03;;;;;;;1.80;1.70;;;16.80;99.90;;;;;;5050398;28;20021;-44
2023/08/27 00:37:29;;;;;;;2.15;1.83;;;16.80;99.90;;;;;;5065548;28;20730;-42
2023/08/27 00:39:55;;;;;;;1.92;1.80;;;16.80;99.90;;;;;;5052446;28;20017;-43
2023/08/27 00:42:24;;;;;;;1.92;1.75;;;16.80;99.90;;;;;;5064800;28;20037;-42
2023/08/27 00:44:50;;;;;;;1.73;1.63;;;16.70;99.90;;;;;;5054546;28;20028;-42
2023/08/27 00:47:16;;;;;;;1.80;1.70;;;16.70;99.90;;;;;;5062532;28;20032;-41
2023/08/27 00:49:42;;;;;;;2.22;2.03;;;16.70;99.90;;;;;;5056515;28;20082;-43
2023/08/27 00:52:11;;;;;;;2.10;1.90;;;16.70;99.90;;;;;;5059975;28;20036;-43
2023/08/27 00:54:40;;;;;;;2.20;2.00;;;16.70;99.90;;;;;;5057838;28;20013;-43
2023/08/27 00:57:09;;;;;;;2.00;1.77;;;16.70;99.90;;;;;;5059621;28;20082;-43
2023/08/27 00:59:35;;;;;;;1.90;1.80;;;16.60;99.90;;;;;;5060304;28;20055;-43
2023/08/27 01:02:02;;;;;;;1.67;1.45;;;16.60;99.90;;;;;;5044487;28;20025;-43
2023/08/27 01:04:30;;;;;;;2.33;1.90;;;16.60;99.90;;;;;;5054687;28;20028;-43
2023/08/27 01:07:04;;;;;;;2.05;1.83;;;16.60;99.90;;;;;;5054791;28;20060;-43
2023/08/27 01:09:40;;;;;;;2.00;1.80;;;16.60;99.90;;;;;;5062952;28;20036;-43
2023/08/27 01:12:28;;;;;;;1.70;1.60;;;16.60;99.90;;;;;;5044373;28;20091;-43
2023/08/27 01:14:54;;;;;;;2.55;1.70;;;16.60;99.90;;;;;;5045406;28;20033;-42
2023/08/27 01:17:22;;;;;;;2.03;1.85;;;16.60;99.90;;;;;;5053715;28;20594;-43
2023/08/27 01:19:50;;;;;;;1.73;1.63;;;16.60;99.90;;;;;;5056975;28;20074;-42
2023/08/27 01:22:17;;;;;;;1.60;1.50;;;16.60;99.90;;;;;;5054878;28;20439;-42
2023/08/27 01:24:42;;;;;;;2.00;1.63;;;16.60;99.90;;;;;;5045620;28;20036;-43
2023/08/27 01:27:15;;;;;;;1.77;1.67;;;16.60;99.90;;;;;;5048205;28;20032;-42
2023/08/27 01:30:14;;;;;;;2.33;1.95;;;16.60;99.90;;;;;;5043985;28;20139;-43
2023/08/27 01:32:51;;;;;;;2.10;1.90;;;16.60;99.90;;;;;;5052253;28;20040;-43
2023/08/27 01:35:17;;;;;;;2.05;1.70;;;16.60;99.90;;;;;;5062183;28;20449;-43
2023/08/27 01:37:43;;;;;;;1.60;1.40;;;16.60;99.90;;;;;;5052111;28;20066;-44
2023/08/27 01:40:09;;;;;;;1.42;1.33;;;16.60;99.90;;;;;;5062735;28;20025;-43
2023/08/27 01:42:37;;;;;;;2.85;1.80;;;16.60;99.90;;;;;;5048857;28;20025;-44
2023/08/27 01:45:06;;;;;;;1.92;1.48;;;16.50;99.90;;;;;;5044075;28;20021;-42
2023/08/27 01:47:32;;;;;;;1.95;1.70;;;16.50;99.90;;;;;;5056607;28;20404;-42
2023/08/27 01:49:58;;;;;;;1.63;1.52;;;16.50;99.90;;;;;;5042967;28;20025;-42
2023/08/27 01:52:26;;;;;;;1.60;1.50;;;16.50;99.90;;;;;;5055239;28;20339;-41
2023/08/27 01:54:51;;;;;;;3.42;1.63;;;16.50;99.90;;;;;;5048179;28;20020;-42
2023/08/27 01:57:17;;;;;;;1.75;1.60;;;16.50;99.90;;;;;;5057333;28;20106;-42
2023/08/27 01:59:42;;;;;;;1.55;1.45;;;16.50;99.90;;;;;;5045652;28;20112;-42
2023/08/27 02:02:08;;;;;;;1.80;1.65;;;16.50;99.90;;;;;;5052089;28;20480;-42
2023/08/27 02:04:33;;;;;;;1.45;1.35;;;16.50;99.90;;;;;;5047728;28;20052;-42
2023/08/27 02:06:59;;;;;;;1.88;1.50;;;16.50;99.90;;;;;;5048969;28;20131;-43
2023/08/27 02:09:25;;;;;;;2.10;1.65;;;16.50;99.90;;;;;;5051744;28;20393;-42
2023/08/27 02:11:52;;;;;;;1.50;1.40;;;16.50;99.90;;;;;;5047079;28;20029;-43
2023/08/27 02:14:17;;;;;;;2.10;1.60;;;16.50;99.90;;;;;;5052957;28;20021;-42
2023/08/27 02:16:43;;;;;;;1.50;1.40;;;16.50;99.90;;;;;;5044979;28;20460;-42
2023/08/27 02:19:11;;;;;;;2.55;1.60;;;16.50;99.90;;;;;;5053910;28;20639;-42
2023/08/27 02:21:37;;;;;;;1.67;1.58;;;16.50;99.90;;;;;;5045229;28;20044;-42
2023/08/27 02:24:03;;;;;;;2.03;1.83;;;16.40;99.90;;;;;;5054471;28;20024;-43
2023/08/27 02:26:29;;;;;;;1.60;1.50;;;16.40;99.90;;;;;;5050105;28;20033;-43
2023/08/27 02:28:54;;;;;;;1.50;1.40;;;16.40;99.90;;;;;;5055831;28;20017;-43
2023/08/27 02:31:20;;;;;;;1.67;1.58;;;16.30;99.90;;;;;;5060868;28;20028;-43
2023/08/27 02:33:45;;;;;;;1.50;1.40;;;16.30;99.90;;;;;;5058254;28;20033;-43
2023/08/27 02:36:11;;;;;;;1.70;1.60;;;16.30;99.90;;;;;;5043842;28;20051;-43
2023/08/27 02:38:37;;;;;;;2.45;2.00;;;16.30;99.90;;;;;;5054188;28;20060;-42
2023/08/27 02:41:02;;;;;;;1.77;1.67;;;16.20;99.90;;;;;;5044502;28;20032;-42
2023/08/27 02:43:28;;;;;;;1.70;1.60;;;16.20;99.90;;;;;;5053767;28;20025;-42
2023/08/27 02:45:53;;;;;;;1.83;1.65;;;16.20;99.90;;;;;;5051962;28;20571;-42
2023/08/27 02:48:19;;;;;;;1.70;1.60;;;16.20;99.90;;;;;;5052060;28;20827;-43
2023/08/27 02:50:45;;;;;;;2.63;1.55;;;16.20;99.90;;;;;;5055025;28;20033;-42
2023/08/27 02:53:10;;;;;;;1.80;1.70;;;16.20;99.90;;;;;;5049067;28;20033;-42
2023/08/27 02:55:36;;;;;;;1.75;1.50;;;16.20;99.90;;;;;;5056748;28;20732;-43
2023/08/27 02:58:02;;;;;;;1.80;1.70;;;16.20;99.90;;;;;;5047939;28;20054;-42
2023/08/27 03:00:28;;;;;;;1.77;1.67;;;16.20;99.90;;;;;;5057406;28;20068;-43
2023/08/27 03:02:53;;;;;;;2.30;1.85;;;16.20;99.90;;;;;;5048407;28;20112;-42
2023/08/27 03:05:19;;;;;;;1.65;1.55;;;16.20;99.90;;;;;;5058325;28;20382;-42
2023/08/27 03:07:45;;;;;;;1.67;1.50;;;16.30;99.90;;;;;;5059269;28;20179;-43
2023/08/27 03:10:11;;;;;;;1.77;1.67;;;16.30;99.90;;;;;;5053528;28;20028;-43
2023/08/27 03:12:40;;;;;;;1.60;1.50;;;16.30;99.90;;;;;;5066748;28;20036;-43
2023/08/27 03:15:12;;;;;;;2.08;1.50;;;16.30;99.90;;;;;;5053047;28;20043;-43
2023/08/27 03:17:44;;;;;;;1.52;1.40;;;16.30;99.90;;;;;;5067246;28;20070;-43
2023/08/27 03:20:10;;;;;;;1.30;1.20;;;16.30;99.90;;;;;;5054997;28;20029;-43
2023/08/27 03:22:35;;;;;;;1.92;1.30;;;16.30;99.90;;;;;;5065775;28;20630;-43
2023/08/27 03:25:01;;;;;;;1.35;1.20;;;16.30;99.90;;;;;;5057220;28;20024;-43
2023/08/27 03:27:32;;;;;;;1.20;1.10;;;16.20;99.90;;;;;;5065125;28;20135;-43
2023/08/27 03:29:58;;;;;;;1.92;1.30;;;16.20;99.90;;;;;;5058989;28;20028;-43
2023/08/27 03:32:24;;;;;;;1.27;1.17;;;16.20;99.90;;;;;;5061688;28;20040;-43
2023/08/27 03:34:49;;;;;;;1.23;1.10;;;16.20;99.90;;;;;;5061952;28;20033;-43
2023/08/27 03:37:15;;;;;;;1.30;1.10;;;16.10;99.90;;;;;;5064056;28;20078;-44
2023/08/27 03:39:40;;;;;;;3.22;1.35;;;16.10;99.90;;;;;;5064613;28;20495;-44
2023/08/27 03:42:06;;;;;;;1.80;1.50;;;16.10;99.90;;;;;;5054418;28;20039;-43
2023/08/27 03:44:33;;;;;;;1.40;1.30;;;16.10;99.90;;;;;;5063876;28;20028;-43
2023/08/27 03:46:58;;;;;;;1.27;1.17;;;16.10;99.90;;;;;;5057025;28;20024;-43
2023/08/27 03:49:24;;;;;;;2.10;1.52;;;16.10;99.90;;;;;;5046051;28;20079;-42
2023/08/27 03:51:50;;;;;;;1.40;1.30;;;16.00;99.90;;;;;;5061350;28;20042;-43
2023/08/27 03:54:16;;;;;;;1.42;1.33;;;16.00;99.90;;;;;;5063967;28;20392;-43
2023/08/27 03:56:44;;;;;;;1.98;1.75;;;15.90;99.90;;;;;;5052118;28;20028;-42
2023/08/27 03:59:10;;;;;;;2.03;1.50;;;15.90;99.90;;;;;;5065814;28;20075;-42
2023/08/27 04:01:35;;;;;;;1.65;1.55;;;15.90;99.90;;;;;;5063816;28;20102;-42
2023/08/27 04:04:04;;;;;;;1.88;1.77;;;15.80;99.90;;;;;;5044881;28;20029;-43
2023/08/27 04:06:30;;;;;;;2.42;1.80;;;15.80;99.90;;;;;;5047664;28;20074;-43
2023/08/27 04:08:55;;;;;;;2.30;1.80;;;15.70;99.90;;;;;;5063010;28;20391;-43
2023/08/27 04:11:21;;;;;;;1.60;1.40;;;15.70;99.90;;;;;;5057396;28;20041;-43
2023/08/27 04:13:46;;;;;;;2.17;1.50;;;15.70;99.90;;;;;;5060979;28;20039;-45
2023/08/27 04:16:12;;;;;;;2.63;1.90;;;15.70;99.90;;;;;;5061174;28;20014;-43
2023/08/27 04:18:38;;;;;;;1.80;1.70;;;15.70;99.90;;;;;;5057348;28;20392;-44
2023/08/27 04:21:04;;;;;;;2.13;1.60;;;15.80;99.90;;;;;;5062748;28;20054;-43
2023/08/27 04:23:29;;;;;;;2.08;1.55;;;15.80;99.90;;;;;;5053894;28;20531;-42
2023/08/27 04:25:55;;;;;;;2.60;2.05;;;15.80;99.90;;;;;;5060854;28;20064;-43
2023/08/27 04:28:21;;;;;;;1.73;1.63;;;15.80;99.90;;;;;;5055937;28;20024;-43
2023/08/27 04:30:48;;;;;;;1.70;1.60;;;15.80;99.90;;;;;;5065189;28;20027;-42
2023/08/27 04:33:14;;;;;;;5.85;1.88;;;15.80;99.90;;;;;;5052445;28;20054;-43
2023/08/27 04:35:40;;;;;;;2.42;1.83;;;15.80;99.90;;;;;;5065698;28;20343;-43
2023/08/27 04:38:06;;;;;;;1.98;1.85;;;15.90;99.90;;;;;;5052771;28;20492;-43
2023/08/27 04:40:34;;;;;;;2.55;1.75;;;15.90;99.90;;;;;;5064861;28;20021;-42
2023/08/27 04:43:03;;;;;;;1.75;1.60;;;15.90;99.90;;;;;;5052450;28;20183;-42
2023/08/27 04:45:29;;;;;;;1.70;1.60;;;16.00;99.90;;;;;;5057399;28;20449;-43
2023/08/27 04:47:54;;;;;;;2.35;1.55;;;15.90;99.90;;;;;;5054389;28;20064;-43
2023/08/27 04:50:20;;;;;;;2.17;1.40;;;15.90;99.90;;;;;;5062568;28;20136;-43
2023/08/27 04:52:45;;;;;;;1.75;1.50;;;15.90;99.90;;;;;;5056647;28;20040;-44
2023/08/27 04:55:11;;;;;;;3.55;1.80;;;15.90;99.90;;;;;;5049282;28;20447;-43
2023/08/27 04:57:37;;;;;;;1.88;1.77;;;15.90;99.90;;;;;;5049393;28;20162;-43
2023/08/27 05:00:07;;;;;;;2.95;1.92;;;15.80;99.90;;;;;;5050693;28;20362;-43
2023/08/27 05:02:34;;;;;;;1.80;1.70;;;15.90;99.90;;;;;;5061436;28;20128;-43
2023/08/27 05:05:00;;;;;;;2.83;1.95;;;15.90;99.90;;;;;;5054868;28;20101;-43
2023/08/27 05:07:25;;;;;;;2.03;1.60;;;15.80;99.90;;;;;;5062315;28;20587;-42
2023/08/27 05:09:51;;;;;;;3.80;1.85;;;15.90;99.90;;;;;;5053885;28;20027;-44
2023/08/27 05:12:17;;;;;;;1.75;1.65;;;15.90;99.90;;;;;;5062885;28;20139;-43
2023/08/27 05:14:42;;;;;;;1.83;1.60;;;15.90;99.90;;;;;;5052665;28;20111;-43
2023/08/27 05:17:08;;;;;;;2.88;1.73;;;15.90;99.90;;;;;;5064523;28;20028;-43
2023/08/27 05:19:34;;;;;;;1.85;1.70;;;15.90;99.90;;;;;;5052173;28;20166;-43
2023/08/27 05:22:02;;;;;;;1.55;1.42;;;15.90;99.90;;;;;;5063557;28;20031;-43
2023/08/27 05:24:28;;;;;;;2.47;1.58;;;15.90;99.90;;;;;;5050628;28;20032;-44
2023/08/27 05:26:54;;;;;;;1.38;1.27;;;15.90;99.90;;;;;;5055509;28;20074;-43
2023/08/27 05:29:19;;;;;;;1.80;1.63;;;15.80;99.90;;;;;;5053655;28;20495;-42
2023/08/27 05:31:45;;;;;;;1.60;1.50;;;15.80;99.90;;;;;;5047401;28;20033;-43
2023/08/27 05:34:11;;;;;;;2.42;1.40;;;15.80;99.90;;;;;;5059257;28;20028;-43
2023/08/27 05:36:37;;;;;;;1.60;1.50;;;15.80;99.90;;;;;;5048382;28;20029;-43
2023/08/27 05:39:04;;;;;;;1.67;1.45;;;15.80;99.90;;;;;;5045692;28;20090;-44
2023/08/27 05:41:30;;;;;;;1.42;1.33;;;15.80;99.90;;;;;;5053243;28;20036;-44
2023/08/27 05:43:56;;;;;;;1.50;1.40;;;15.80;99.90;;;;;;5060490;28;20029;-44
2023/08/27 05:46:21;;;;;;;1.20;1.10;;;15.80;99.90;;;;;;5054088;28;20654;-44
2023/08/27 05:48:47;;;;;;;1.50;1.17;;;15.80;99.90;;;;;;5061345;28;20118;-43
2023/08/27 05:51:15;;;;;;;1.50;1.13;;;15.80;99.90;;;;;;5051780;28;20376;-44
2023/08/27 05:53:42;;;;;;;2.38;1.30;;;15.90;99.90;;;;;;5062965;28;20038;-45
2023/08/27 05:56:08;;;;;;;1.55;1.45;;;15.90;99.90;;;;;;5051696;28;20031;-42
2023/08/27 05:58:33;;;;;;;1.58;1.40;;;15.90;99.90;;;;;;5063291;28;20131;-44
2023/08/27 06:01:02;;;;;;;1.25;1.15;;;16.00;99.90;;;;;;5048728;28;20028;-42
2023/08/27 06:03:28;;;;;;;2.78;1.40;;;16.00;99.90;;;;;;5063223;28;20025;-43
2023/08/27 06:05:53;;;;;;;1.50;1.40;;;16.10;99.90;;;;;;5051098;28;20074;-42
2023/08/27 06:08:19;;;;;;;2.20;1.00;;;16.10;99.90;;;;;;5064285;28;20044;-43
2023/08/27 06:10:45;;;;;;;2.28;1.23;;;16.20;99.90;;;;;;5052335;28;20748;-43
2023/08/27 06:13:11;;;;;;;1.60;1.30;;;16.20;99.90;;;;;;5062013;28;20072;-43
2023/08/27 06:15:39;;;;;;;2.05;1.10;;;16.20;99.90;;;;;;5056408;28;20055;-43
2023/08/27 06:18:05;;;;;;;1.60;1.05;;;16.20;99.90;;;;;;5061419;28;20115;-43
2023/08/27 06:20:33;;;;;;;1.20;1.02;;;16.20;99.90;;;;;;5062154;28;20551;-43
2023/08/27 06:23:05;;;;;;;1.25;1.15;;;16.20;99.90;;;;;;5052818;28;20743;-43
2023/08/27 06:25:34;;;;;;;1.42;1.00;;;16.30;99.90;;;;;;5055509;28;20028;-42
2023/08/27 06:28:04;;;;;;;1.63;1.00;;;16.30;99.90;;;;;;5050073;28;20024;-42
2023/08/27 06:30:30;;;;;;;0.80;0.80;;;16.40;99.90;;;;;;5062867;28;20025;-43
2023/08/27 06:32:55;;;;;;;1.13;0.77;;;16.50;99.90;;;;;;5057148;28;20676;-43
2023/08/27 06:35:22;;;;;;;1.20;0.80;;;16.70;99.90;;;;;;5048425;28;20020;-42
2023/08/27 06:37:47;;;;;;;1.00;0.90;;;16.80;99.90;;;;;;5058627;28;20112;-43
2023/08/27 06:40:16;;;;;;;0.85;0.77;;;16.80;99.90;;;;;;5047504;28;20128;-42
2023/08/27 06:42:42;;;;;;;1.48;1.00;;;16.90;99.90;;;;;;5059286;28;20143;-43
2023/08/27 06:45:08;;;;;;;0.98;0.88;;;16.90;99.90;;;;;;5046523;28;20778;-43
2023/08/27 06:47:37;;;;;;;1.73;1.20;;;16.90;99.90;;;;;;5049467;28;20090;-42
2023/08/27 06:50:06;;;;;;;1.10;1.00;;;16.80;99.90;;;;;;5044949;28;20556;-42
2023/08/27 06:52:32;;;;;;;1.83;1.10;;;16.80;99.90;;;;;;5051115;28;20131;-42
2023/08/27 06:54:58;;;;;;;1.98;1.27;;;16.80;99.90;;;;;;5060288;28;20464;-42
2023/08/27 06:57:24;;;;;;;1.20;1.00;;;16.70;99.90;;;;;;5055109;28;20043;-41
2023/08/27 06:59:49;;;;;;;1.13;1.02;;;16.60;99.90;;;;;;5054196;28;20338;-43
2023/08/27 07:02:16;;;;;;;1.58;1.27;;;16.60;99.90;;;;;;5055124;28;20028;-43
2023/08/27 07:04:41;;;;;;;2.10;1.30;;;16.60;99.90;;;;;;5059606;28;20014;-43
2023/08/27 07:07:07;;;;;;;1.73;1.30;;;16.50;99.90;;;;;;5056950;28;20044;-43
2023/08/27 07:09:33;;;;;;;1.92;1.17;;;16.60;99.90;;;;;;5063961;28;20032;-43
2023/08/27 07:11:58;;;;;;;1.60;1.50;;;16.60;99.90;;;;;;5052441;28;20036;-43
2023/08/27 07:14:24;;;;;;;1.50;1.40;;;16.70;99.90;;;;;;5054484;28;20043;-43
2023/08/27 07:16:49;;;;;;;1.55;1.30;;;16.70;99.90;;;;;;5057413;28;20021;-43
2023/08/27 07:19:15;;;;;;;2.20;1.38;;;16.80;99.90;;;;;;5057289;28;20032;-43
2023/08/27 07:21:41;;;;;;;2.15;1.40;;;17.00;99.90;;;;;;5058224;28;20031;-43
2023/08/27 07:24:06;;;;;;;1.38;1.27;;;17.00;99.90;;;;;;5059250;28;20058;-44
2023/08/27 07:26:32;;;;;;;2.85;1.38;;;17.10;99.90;;;;;;5061907;28;20389;-43
2023/08/27 07:28:58;;;;;;;1.60;1.40;;;17.30;99.90;;;;;;5055031;28;20032;-43
2023/08/27 07:31:27;;;;;;;2.20;1.50;;;17.40;99.90;;;;;;5061035;28;20358;-44
2023/08/27 07:33:52;;;;;;;2.28;1.90;;;17.40;99.90;;;;;;5055993;28;20032;-43
2023/08/27 07:36:18;;;;;;;2.47;1.50;;;17.50;99.90;;;;;;5060169;28;20033;-43
2023/08/27 07:38:44;;;;;;;2.17;1.70;;;17.50;99.90;;;;;;5057030;28;20024;-43
2023/08/27 07:41:10;;;;;;;1.50;1.40;;;17.50;99.90;;;;;;5060211;28;20056;-44
2023/08/27 07:43:36;;;;;;;2.97;2.03;;;17.50;99.90;;;;;;5058302;28;20028;-43
2023/08/27 07:46:02;;;;;;;2.15;1.80;;;17.50;99.90;;;;;;5057428;28;20028;-44
2023/08/27 07:48:28;;;;;;;2.00;1.70;;;17.50;99.90;;;;;;5056697;28;20048;-43
2023/08/27 07:50:53;;;;;;;3.15;1.67;;;17.50;99.90;;;;;;5060055;28;20051;-44
2023/08/27 07:53:22;;;;;;;2.17;1.70;;;17.50;99.90;;;;;;5056641;28;20425;-43
2023/08/27 07:55:48;;;;;;;2.00;1.90;;;17.60;99.90;;;;;;5049219;28;20068;-43
2023/08/27 07:58:13;;;;;;;1.95;1.75;;;17.60;99.90;;;;;;5063285;28;20125;-43
2023/08/27 08:00:39;;;;;;;2.13;1.92;;;17.70;99.90;;;;;;5057639;28;20028;-44
2023/08/27 08:03:08;;;;;;;3.08;1.90;;;17.80;99.90;;;;;;5056496;28;20133;-42
2023/08/27 08:05:34;;;;;;;3.92;1.80;;;17.80;99.90;;;;;;5061377;28;20024;-43
2023/08/27 08:07:59;;;;;;;3.03;1.98;;;18.00;99.90;;;;;;5057310;28;20023;-43
2023/08/27 08:10:25;;;;;;;3.30;1.88;;;18.00;99.90;;;;;;5057185;28;20483;-43
2023/08/27 08:12:52;;;;;;;3.17;2.00;;;18.10;99.90;;;;;;5058461;28;20031;-42
2023/08/27 08:15:18;;;;;;;2.63;2.40;;;18.10;99.90;;;;;;5056878;28;20036;-42
2023/08/27 08:17:44;;;;;;;3.90;2.08;;;18.10;99.90;;;;;;5059231;28;20013;-42
2023/08/27 08:20:11;;;;;;;4.43;2.05;;;18.10;99.90;;;;;;5059120;28;20098;-42
2023/08/27 08:22:37;;;;;;;2.58;2.38;;;18.10;99.90;;;;;;5058774;28;20432;-43
2023/08/27 08:25:06;;;;;;;4.03;2.83;;;18.10;99.90;;;;;;5054177;28;20028;-43
2023/08/27 08:27:32;;;;;;;3.15;2.47;;;18.10;99.90;;;;;;5056775;28;20025;-43
2023/08/27 08:29:58;;;;;;;3.15;2.83;;;18.10;99.90;;;;;;5057253;28;20033;-43
2023/08/27 08:32:24;;;;;;;2.90;2.70;;;18.10;99.90;;;;;;5056509;28;20033;-42
2023/08/27 08:34:49;;;;;;;3.55;3.25;;;18.10;99.90;;;;;;5056758;28;20114;-42
2023/08/27 08:37:15;;;;;;;3.15;2.85;;;18.20;99.90;;;;;;5056960;28;20515;-42
2023/08/27 08:39:43;;;;;;;4.03;3.58;;;18.20;99.90;;;;;;5056904;28;20025;-42
2023/08/27 08:42:44;;;;;;;5.45;3.42;;;18.20;99.90;;;;;;5057386;28;20035;-42
2023/08/27 08:46:05;;;;;;;3.85;3.15;;;18.20;99.90;;;;;;5052843;28;20021;-42
2023/08/27 08:48:42;;;;;;;4.97;3.15;;;18.20;99.90;;;;;;5054241;28;20162;-43
2023/08/27 08:51:12;;;;;;;3.10;2.80;;;18.30;99.90;;;;;;5058448;28;20181;-43
2023/08/27 08:53:49;;;;;;;3.63;3.00;;;18.30;99.90;;;;;;5058597;28;20032;-42
2023/08/27 08:56:28;;;;;;;3.55;2.45;;;18.30;99.90;;;;;;5055073;28;20028;-43
2023/08/27 08:59:01;;;;;;;3.85;2.75;;;18.30;99.90;;;;;;5056685;28;20123;-43
2023/08/27 09:01:27;;;;;;;;;;;18.30;99.90;;;;;;5058255;28;20024;-44
2023/08/27 09:03:55;;;;;;;3.25;2.30;;;18.30;99.90;;;;;;5058099;28;20700;-42
2023/08/27 09:06:23;;;;;;;2.75;2.55;;;18.40;99.90;;;;;;5054092;28;20559;-44
2023/08/27 09:08:52;;;;;;;2.97;2.58;;;18.40;99.90;;;;;;5055556;28;20020;-43
2023/08/27 09:11:19;;;;;;;3.85;3.05;;;18.50;99.90;;;;;;5052414;28;20031;-43
2023/08/27 09:13:45;;;;;;;2.47;2.22;;;18.60;99.90;;;;;;5059017;28;20491;-43
2023/08/27 09:16:11;;;;;;;2.80;2.30;;;18.70;99.90;;;;;;5057968;28;20032;-43
2023/08/27 09:18:37;;;;;;;2.35;2.15;;;18.90;99.90;;;;;;5048689;28;20071;-43
2023/08/27 09:21:03;;;;;;;2.08;1.95;;;19.00;99.90;;;;;;5051676;28;20472;-43
2023/08/27 09:23:37;;;;;;;2.60;2.28;;;19.10;99.90;;;;;;5053189;28;20017;-43
2023/08/27 09:26:04;;;;;;;2.00;1.90;;;19.10;99.90;;;;;;5057100;28;20686;-43
2023/08/27 09:28:31;;;;;;;2.30;2.10;;;19.10;99.90;;;;;;5052790;28;20013;-42
2023/08/27 09:31:03;;;;;;;3.42;3.08;;;19.00;99.90;;;;;;5051378;28;20020;-43
2023/08/27 09:33:46;;;;;;;2.65;2.45;;;18.90;99.90;;;;;;5056153;28;20043;-42
2023/08/27 09:36:13;;;;;;;2.55;2.40;;;18.80;99.90;;;;;;5056371;28;20043;-43
2023/08/27 09:38:44;;;;;;;2.20;2.10;;;18.90;99.90;;;;;;5058318;28;20168;-43
2023/08/27 09:41:12;;;;;;;2.78;2.30;;;18.90;99.90;;;;;;5056983;28;20071;-43
2023/08/27 09:43:38;;;;;;;2.80;2.15;;;19.00;99.90;;;;;;5055767;28;20028;-42
2023/08/27 09:46:09;;;;;;;2.83;2.25;;;19.10;99.90;;;;;;5056823;28;20044;-43
2023/08/27 09:48:34;;;;;;;2.40;2.17;;;19.10;99.90;;;;;;5055054;28;20774;-42
2023/08/27 09:51:05;;;;;;;2.25;1.90;;;19.10;99.90;;;;;;5055362;28;20028;-43
2023/08/27 09:53:31;;;;;;;1.83;1.55;;;19.20;99.90;;;;;;5053545;28;20036;-42
2023/08/27 09:55:57;;;;;;;2.05;1.52;;;19.40;99.90;;;;;;5057743;28;20027;-43
2023/08/27 09:58:26;;;;;;;1.63;1.38;;;19.50;99.90;;;;;;5049485;28;20037;-42
2023/08/27 10:00:59;;;;;;;1.70;1.30;;;19.60;99.90;;;;;;5056175;28;20434;-42
2023/08/27 10:03:24;;;;;;;1.45;1.00;;;19.90;99.90;;;;;;5055311;28;20122;-42
2023/08/27 10:05:52;;;;;;;1.73;1.40;;;20.00;99.90;;;;;;5058238;28;20177;-43
2023/08/27 10:08:18;;;;;;;2.00;1.40;;;20.20;99.90;;;;;;5052761;28;20551;-43
2023/08/27 10:10:44;;;;;;;2.63;1.45;;;20.30;99.90;;;;;;5056595;28;20028;-43
2023/08/27 10:13:13;;;;;;;1.38;1.20;;;20.30;99.90;;;;;;5055790;28;20814;-43
2023/08/27 10:15:39;;;;;;;1.40;1.27;;;20.40;99.90;;;;;;5058366;28;20033;-43
2023/08/27 10:18:11;;;;;;;1.08;0.98;;;20.30;99.90;;;;;;5054895;28;20031;-44
2023/08/27 10:20:37;;;;;;;1.45;1.10;;;20.20;99.90;;;;;;5054342;28;20028;-43
2023/08/27 10:23:04;;;;;;;3.42;1.20;;;20.00;99.90;;;;;;5055399;28;20033;-43
2023/08/27 10:25:32;;;;;;;1.83;1.30;;;19.90;99.90;;;;;;5054987;28;20772;-42
2023/08/27 10:27:58;;;;;;;1.10;0.90;;;19.80;99.90;;;;;;5053965;28;20496;-43
2023/08/27 10:30:25;;;;;;;1.42;0.90;;;19.60;99.90;;;;;;5052154;28;20027;-43
2023/08/27 10:32:51;;;;;;;0.88;0.80;;;19.40;99.90;;;;;;5059189;28;20111;-42
2023/08/27 10:35:16;;;;;;;0.65;0.63;;;19.10;99.90;;;;;;5052748;28;20029;-43
2023/08/27 10:37:48;;;;;;;0.88;0.60;;;18.90;99.90;;;;;;5055070;28;20029;-42
2023/08/27 10:40:15;;;;;;;0.70;0.70;;;18.70;99.90;;;;;;5054416;28;20024;-42
2023/08/27 10:42:41;;;;;;;1.23;0.77;;;18.60;99.90;;;;;;5056324;28;20586;-42
2023/08/27 10:45:18;;;;;;;0.60;0.60;;;18.50;99.90;;;;;;5054297;28;20033;-42
2023/08/27 10:48:13;;;;;;;0.63;0.63;;;18.20;99.90;;;;;;5054115;28;20024;-42
2023/08/27 10:51:09;;;;;;;1.13;0.90;;;18.00;99.90;;;;;;5052576;28;20055;-42
2023/08/27 10:53:57;;;;;;;2.88;1.20;;;17.90;99.90;;;;;;5054674;28;20052;-42
2023/08/27 10:56:26;;;;;;;1.23;1.02;;;17.20;99.90;;;;;;5054413;28;20184;-42
2023/08/27 10:58:52;;;;;;;2.00;0.98;;;16.50;99.90;;;;;;5053529;28;20447;-44
2023/08/27 11:01:21;;;;;;;1.40;0.95;;;16.00;99.90;;;;;;5055201;28;20418;-42
2023/08/27 11:03:57;;;;;;;1.90;1.20;;;15.70;99.90;;;;;;5053517;28;20151;-42
2023/08/27 11:06:45;;;;;;;1.30;1.08;;;15.60;99.90;;;;;;5059179;28;20048;-43
2023/08/27 11:09:24;;;;;;;1.50;1.15;;;15.60;99.90;;;;;;5059209;28;20093;-43
2023/08/27 11:12:03;;;;;;;1.45;1.05;;;15.60;99.90;;;;;;5054723;28;20077;-42
2023/08/27 11:14:35;;;;;;;1.75;1.15;;;15.70;99.90;;;;;;5058038;28;20222;-43
2023/08/27 11:17:03;;;;;;;1.40;1.10;;;15.80;99.90;;;;;;5058293;28;20052;-43
2023/08/27 11:19:36;;;;;;;2.58;1.17;;;15.80;99.90;;;;;;5056932;28;20032;-42
2023/08/27 11:22:09;;;;;;;4.10;1.27;;;15.80;99.90;;;;;;5059842;28;20043;-43
2023/08/27 11:24:49;;;;;;;2.63;1.00;;;15.80;99.90;;;;;;5060137;28;20024;-44
2023/08/27 11:27:17;;;;;;;1.60;0.90;;;15.80;99.90;;;;;;5057789;28;20064;-43
2023/08/27 11:29:49;;;;;;;1.20;1.02;;;15.80;99.90;;;;;;5061694;28;20125;-43
2023/08/27 11:32:15;;;;;;;2.40;1.20;;;15.70;99.90;;;;;;5057108;28;20040;-43
2023/08/27 11:34:46;;;;;;;3.00;1.52;;;15.70;99.90;;;;;;5058395;28;20021;-43
2023/08/27 11:37:12;;;;;;;1.90;1.05;;;15.60;99.90;;;;;;5052649;28;20593;-43
2023/08/27 11:39:39;;;;;;;2.15;1.27;;;15.30;99.90;;;;;;5060740;28;20484;-42
2023/08/27 11:42:12;;;;;;;3.53;1.10;;;15.10;99.90;;;;;;5055085;28;20778;-42
2023/08/27 11:44:55;;;;;;;1.40;1.00;;;14.90;99.90;;;;;;5059837;28;20020;-42
2023/08/27 11:47:21;;;;;;;;;;;14.80;99.90;;;;;;5060004;28;20033;-42
2023/08/27 11:49:47;;;;;;;2.75;0.90;;;14.70;99.90;;;;;;5055149;28;20383;-43
2023/08/27 11:52:16;;;;;;;1.17;0.90;;;14.60;99.90;;;;;;5055972;28;20051;-43
2023/08/27 11:54:43;;;;;;;2.25;1.02;;;14.70;99.90;;;;;;5056233;28;20034;-43
2023/08/27 11:57:09;;;;;;;1.20;1.10;;;14.70;99.90;;;;;;5056970;28;20020;-43
2023/08/27 11:59:38;;;;;;;1.10;0.80;;;14.70;99.90;;;;;;5058612;28;20576;-43
2023/08/27 12:02:06;;;;;;;1.00;0.82;;;14.90;99.90;;;;;;5056256;28;20012;-42
2023/08/27 12:04:32;;;;;;;0.95;0.90;;;15.00;99.90;;;;;;5058844;28;20021;-42
2023/08/27 12:07:02;;;;;;;0.93;0.88;;;15.10;99.90;;;;;;5056366;28;20067;-42
2023/08/27 12:09:29;;;;;;;1.20;1.00;;;15.40;99.90;;;;;;5058047;28;20125;-43
2023/08/27 12:12:02;;;;;;;0.70;0.70;;;15.50;99.90;;;;;;5054978;28;20037;-44
2023/08/27 12:14:29;;;;;;;1.33;0.75;;;15.60;99.90;;;;;;5060465;28;20047;-43
2023/08/27 12:17:05;;;;;;;0.90;0.90;;;15.70;99.90;;;;;;5057055;28;20024;-42
2023/08/27 12:19:31;;;;;;;0.82;0.75;;;15.80;99.90;;;;;;5059328;28;20146;-42
2023/08/27 12:21:59;;;;;;;1.35;1.00;;;15.90;99.90;;;;;;5058291;28;20189;-42
2023/08/27 12:24:31;;;;;;;1.33;1.10;;;15.90;99.90;;;;;;5056921;28;20043;-42
2023/08/27 12:27:04;;;;;;;0.70;0.70;;;16.00;99.90;;;;;;5055252;28;20028;-43
2023/08/27 12:29:41;;;;;;;0.90;0.73;;;16.00;99.90;;;;;;5058575;28;20031;-42
2023/08/27 12:32:10;;;;;;;0.80;0.80;;;16.00;99.90;;;;;;5056679;28;20041;-43
2023/08/27 12:34:42;;;;;;;1.15;0.82;;;15.90;99.90;;;;;;5057203;28;20032;-42
2023/08/27 12:37:09;;;;;;;1.20;1.00;;;15.90;99.90;;;;;;5056759;28;20037;-43
2023/08/27 12:39:37;;;;;;;1.40;1.00;;;16.00;99.90;;;;;;5058169;28;20034;-42
2023/08/27 12:42:03;;;;;;;1.10;0.90;;;16.00;99.90;;;;;;5057117;28;20431;-43
2023/08/27 12:44:33;;;;;;;1.23;0.88;;;16.10;99.90;;;;;;5056935;28;20643;-43
2023/08/27 12:46:58;;;;;;;0.70;0.70;;;16.10;99.90;;;;;;5057681;28;20020;-43
2023/08/27 12:49:24;;;;;;;1.15;0.80;;;16.30;99.90;;;;;;5059767;28;20031;-43
2023/08/27 12:51:50;;;;;;;1.48;1.20;;;16.40;99.90;;;;;;5044617;28;20021;-43